Time,TemperatureF,DewpointF,PressureIn,WindDirection,WindDirectionDegrees,WindSpeedMPH,WindSpeedGustMPH,Humidity,HourlyPrecipIn,Conditions,Clouds,dailyrainin,SoftwareType,DateUTC
2013-04-03 00:00:00,19.6,-18.1,29.18,WNW,301,0.0,0.0,17,0.00,,,0.00,VWS V13.01,2013-04-03 05:00:00,
2013-04-03 00:05:00,19.2,-17.3,29.18,SSE,164,0.0,0.0,18,0.00,,,0.00,VWS V13.01,2013-04-03 05:05:00,
2013-04-03 00:10:00,19.9,-14.7,29.18,SSE,164,0.0,0.0,20,0.00,,,0.00,VWS V13.01,2013-04-03 05:10:00,
2013-04-03 00:15:00,19.6,-18.1,29.18,SSE,164,0.0,0.0,17,0.00,,,0.00,VWS V13.01,2013-04-03 05:15:00,
2013-04-03 00:20:00,19.2,-17.3,29.18,SSE,164,0.0,0.0,18,0.00,,,0.00,VWS V13.01,2013-04-03 05:20:00,
2013-04-03 00:25:00,19.0,-15.4,29.18,SSE,164,0.0,0.0,20,0.00,,,0.00,VWS V13.01,2013-04-03 05:25:00,
2013-04-03 00:30:00,19.4,-15.1,29.18,SSE,164,0.0,0.0,20,0.00,,,0.00,VWS V13.01,2013-04-03 05:30:00,
2013-04-03 00:35:00,19.6,-15.0,29.18,SSE,164,0.0,0.0,20,0.00,,,0.00,VWS V13.01,2013-04-03 05:35:00,
2013-04-03 00:40:00,19.2,-15.3,29.18,SSE,164,0.0,0.0,20,0.00,,,0.00,VWS V13.01,2013-04-03 05:40:00,
2013-04-03 00:45:00,19.2,-15.3,29.18,SSE,164,0.0,0.0,20,0.00,,,0.00,VWS V13.01,2013-04-03 05:45:00,
2013-04-03 00:50:00,18.5,-15.9,29.18,SSE,164,0.0,0.0,20,0.00,,,0.00,VWS V13.01,2013-04-03 05:50:00,
2013-04-03 00:55:00,18.1,-13.4,29.18,SSE,164,0.0,0.0,23,0.00,,,0.00,VWS V13.01,2013-04-03 05:55:00,
2013-04-03 01:00:00,18.7,-15.7,29.18,SSE,164,0.0,0.0,20,0.00,,,0.00,VWS V13.01,2013-04-03 06:00:00,
2013-04-03 01:05:00,18.1,-16.2,29.18,SSE,164,0.0,0.0,20,0.00,,,0.00,VWS V13.01,2013-04-03 06:05:00,
2013-04-03 01:10:00,17.4,-15.8,29.18,SSE,164,0.0,0.0,21,0.00,,,0.00,VWS V13.01,2013-04-03 06:10:00,
2013-04-03 01:15:00,17.8,-16.5,29.18,SSE,164,0.0,0.0,20,0.00,,,0.00,VWS V13.01,2013-04-03 06:15:00,
2013-04-03 01:20:00,17.6,-15.7,29.18,SSE,164,0.0,0.0,21,0.00,,,0.00,VWS V13.01,2013-04-03 06:20:00,
2013-04-03 01:25:00,17.4,-15.8,29.18,SSE,164,0.0,0.0,21,0.00,,,0.00,VWS V13.01,2013-04-03 06:25:00,
2013-04-03 01:31:00,16.7,-14.6,29.18,SSE,164,0.0,0.0,23,0.00,,,0.00,VWS V13.01,2013-04-03 06:31:00,
2013-04-03 01:36:00,16.5,-14.8,29.18,SSE,164,0.0,0.0,23,0.00,,,0.00,VWS V13.01,2013-04-03 06:36:00,
2013-04-03 01:41:00,16.0,-17.0,29.21,SSE,164,0.0,0.0,21,0.00,,,0.00,VWS V13.01,2013-04-03 06:41:00,
2013-04-03 01:46:00,17.8,-13.7,29.21,SSE,164,0.0,0.0,23,0.00,,,0.00,VWS V13.01,2013-04-03 06:46:00,
2013-04-03 01:51:00,18.3,-13.3,29.21,SSE,164,0.0,0.0,23,0.00,,,0.00,VWS V13.01,2013-04-03 06:51:00,
2013-04-03 01:56:00,18.0,-13.6,29.21,SSE,164,0.0,0.0,23,0.00,,,0.00,VWS V13.01,2013-04-03 06:56:00,
2013-04-03 02:01:00,17.2,-11.8,29.21,SSE,164,0.0,0.0,26,0.00,,,0.00,VWS V13.01,2013-04-03 07:01:00,
2013-04-03 02:06:00,17.1,-8.4,29.21,SSE,164,0.0,0.0,31,0.00,,,0.00,VWS V13.01,2013-04-03 07:06:00,
2013-04-03 02:12:00,16.3,-12.5,29.21,SSE,164,0.0,0.0,26,0.00,,,0.00,VWS V13.01,2013-04-03 07:12:00,
2013-04-03 02:16:00,15.6,-11.0,29.21,SSE,164,0.0,0.0,29,0.00,,,0.00,VWS V13.01,2013-04-03 07:16:00,
2013-04-03 02:22:00,16.3,-7.1,29.21,SSE,164,0.0,0.0,34,0.00,,,0.00,VWS V13.01,2013-04-03 07:22:00,
2013-04-03 02:27:00,17.4,-6.1,29.21,SSE,164,0.0,0.0,34,0.00,,,0.00,VWS V13.01,2013-04-03 07:27:00,
2013-04-03 02:32:00,18.3,-5.3,29.21,SSE,164,0.0,0.0,34,0.00,,,0.00,VWS V13.01,2013-04-03 07:32:00,
2013-04-03 02:37:00,18.5,-5.2,29.21,SSE,164,0.0,0.0,34,0.00,,,0.00,VWS V13.01,2013-04-03 07:37:00,
2013-04-03 02:42:00,18.7,-5.6,29.21,SSE,164,0.0,0.0,33,0.00,,,0.00,VWS V13.01,2013-04-03 07:42:00,
2013-04-03 02:47:00,18.3,-6.0,29.21,SSE,164,0.0,0.0,33,0.00,,,0.00,VWS V13.01,2013-04-03 07:47:00,
2013-04-03 02:52:00,18.1,-6.1,29.21,SSE,164,0.0,0.0,33,0.00,,,0.00,VWS V13.01,2013-04-03 07:52:00,
2013-04-03 02:57:00,18.0,-5.7,29.21,SSE,164,0.0,0.0,34,0.00,,,0.00,VWS V13.01,2013-04-03 07:57:00,
2013-04-03 03:02:00,17.6,-6.6,29.21,SSE,164,0.0,0.0,33,0.00,,,0.00,VWS V13.01,2013-04-03 08:02:00,
2013-04-03 03:07:00,18.3,-7.9,29.21,SSE,164,0.0,0.0,30,0.00,,,0.00,VWS V13.01,2013-04-03 08:07:00,
2013-04-03 03:12:00,17.6,-7.9,29.18,SSE,164,0.0,0.0,31,0.00,,,0.00,VWS V13.01,2013-04-03 08:12:00,
2013-04-03 03:17:00,17.1,-6.5,29.18,SSE,164,0.0,0.0,34,0.00,,,0.00,VWS V13.01,2013-04-03 08:17:00,
2013-04-03 03:22:00,17.8,-4.6,29.18,SSE,164,0.0,0.0,36,0.00,,,0.00,VWS V13.01,2013-04-03 08:22:00,
2013-04-03 03:27:00,18.7,-5.0,29.18,SSE,164,0.0,0.0,34,0.00,,,0.00,VWS V13.01,2013-04-03 08:27:00,
2013-04-03 03:32:00,18.5,-5.8,29.18,SSE,164,0.0,0.0,33,0.00,,,0.00,VWS V13.01,2013-04-03 08:32:00,
2013-04-03 03:37:00,17.6,-7.9,29.18,SSE,164,0.0,0.0,31,0.00,,,0.00,VWS V13.01,2013-04-03 08:37:00,
2013-04-03 03:42:00,16.7,-6.8,29.18,SSE,164,0.0,0.0,34,0.00,,,0.00,VWS V13.01,2013-04-03 08:42:00,
2013-04-03 03:47:00,17.1,-6.5,29.18,SSE,164,0.0,0.0,34,0.00,,,0.00,VWS V13.01,2013-04-03 08:47:00,
2013-04-03 03:52:00,17.4,-5.5,29.18,SSE,164,0.0,0.0,35,0.00,,,0.00,VWS V13.01,2013-04-03 08:52:00,
2013-04-03 03:57:00,17.8,-5.2,29.18,SSE,164,0.0,0.0,35,0.00,,,0.00,VWS V13.01,2013-04-03 08:57:00,
2013-04-03 04:02:00,17.8,-6.4,29.18,SSE,164,0.0,0.0,33,0.00,,,0.00,VWS V13.01,2013-04-03 09:02:00,
2013-04-03 04:07:00,17.6,-7.9,29.18,SSE,164,0.0,0.0,31,0.00,,,0.00,VWS V13.01,2013-04-03 09:07:00,
2013-04-03 04:12:00,17.4,-10.1,29.18,SSE,164,0.0,0.0,28,0.00,,,0.00,VWS V13.01,2013-04-03 09:12:00,
2013-04-03 04:17:00,16.9,-10.6,29.18,SSE,164,0.0,0.0,28,0.00,,,0.00,VWS V13.01,2013-04-03 09:17:00,
2013-04-03 04:22:00,16.7,-10.7,29.18,SSE,164,0.0,0.0,28,0.00,,,0.00,VWS V13.01,2013-04-03 09:22:00,
2013-04-03 04:27:00,17.2,-6.9,29.18,SSE,164,0.0,0.0,33,0.00,,,0.00,VWS V13.01,2013-04-03 09:27:00,
2013-04-03 04:32:00,17.8,-6.4,29.18,SSE,164,0.0,0.0,33,0.00,,,0.00,VWS V13.01,2013-04-03 09:32:00,
2013-04-03 04:37:00,17.8,-6.4,29.18,SSE,164,0.0,0.0,33,0.00,,,0.00,VWS V13.01,2013-04-03 09:37:00,
2013-04-03 04:42:00,18.0,-6.3,29.18,SSE,164,0.0,0.0,33,0.00,,,0.00,VWS V13.01,2013-04-03 09:42:00,
2013-04-03 04:47:00,17.6,-6.0,29.18,SSE,164,0.0,0.0,34,0.00,,,0.00,VWS V13.01,2013-04-03 09:47:00,
2013-04-03 04:52:00,17.8,-6.4,29.18,SSE,164,0.0,0.0,33,0.00,,,0.00,VWS V13.01,2013-04-03 09:52:00,
2013-04-03 04:57:00,18.0,-6.3,29.21,SSE,164,0.0,0.0,33,0.00,,,0.00,VWS V13.01,2013-04-03 09:57:00,
2013-04-03 05:02:00,17.8,-6.4,29.21,SSE,164,0.0,0.0,33,0.00,,,0.00,VWS V13.01,2013-04-03 10:02:00,
2013-04-03 05:07:00,17.8,-6.4,29.21,SSE,164,0.0,0.0,33,0.00,,,0.00,VWS V13.01,2013-04-03 10:07:00,
2013-04-03 05:12:00,18.3,-6.0,29.21,SSE,164,0.0,0.0,33,0.00,,,0.00,VWS V13.01,2013-04-03 10:12:00,
2013-04-03 05:17:00,18.7,-5.6,29.21,SSE,164,0.0,0.0,33,0.00,,,0.00,VWS V13.01,2013-04-03 10:17:00,
2013-04-03 05:22:00,18.0,-6.3,29.21,SSE,164,0.0,0.0,33,0.00,,,0.00,VWS V13.01,2013-04-03 10:22:00,
2013-04-03 05:27:00,17.6,-6.0,29.21,SSE,164,0.0,0.0,34,0.00,,,0.00,VWS V13.01,2013-04-03 10:27:00,
2013-04-03 05:33:00,16.9,-6.6,29.21,SSE,164,0.0,0.0,34,0.00,,,0.00,VWS V13.01,2013-04-03 10:33:00,
2013-04-03 05:37:00,17.1,-6.5,29.21,SSE,164,0.0,0.0,34,0.00,,,0.00,VWS V13.01,2013-04-03 10:37:00,
2013-04-03 05:42:00,17.8,-6.4,29.21,SSE,164,0.0,0.0,33,0.00,,,0.00,VWS V13.01,2013-04-03 10:42:00,
2013-04-03 05:47:00,17.6,-6.6,29.21,SSE,164,0.0,0.0,33,0.00,,,0.00,VWS V13.01,2013-04-03 10:47:00,
2013-04-03 05:52:00,17.4,-6.1,29.21,SSE,164,0.0,0.0,34,0.00,,,0.00,VWS V13.01,2013-04-03 10:52:00,
2013-04-03 05:57:00,18.0,-5.1,29.21,SSE,164,0.0,0.0,35,0.00,,,0.00,VWS V13.01,2013-04-03 10:57:00,
2013-04-03 06:02:00,18.1,-5.5,29.21,SSE,164,0.0,0.0,34,0.00,,,0.00,VWS V13.01,2013-04-03 11:02:00,
2013-04-03 06:07:00,18.1,-6.1,29.21,SSE,164,0.0,0.0,33,0.00,,,0.00,VWS V13.01,2013-04-03 11:07:00,
2013-04-03 06:12:00,18.3,-6.0,29.21,SSE,164,0.0,0.0,33,0.00,,,0.00,VWS V13.01,2013-04-03 11:12:00,
2013-04-03 06:17:00,17.8,-6.4,29.21,SSE,164,0.0,0.0,33,0.00,,,0.00,VWS V13.01,2013-04-03 11:17:00,
2013-04-03 06:22:00,18.1,-6.1,29.21,SSE,164,0.0,0.0,33,0.00,,,0.00,VWS V13.01,2013-04-03 11:22:00,
2013-04-03 06:27:00,17.4,-6.1,29.21,SSE,164,0.0,0.0,34,0.00,,,0.00,VWS V13.01,2013-04-03 11:27:00,
2013-04-03 06:32:00,17.1,-6.5,29.21,SSE,164,0.0,0.0,34,0.00,,,0.00,VWS V13.01,2013-04-03 11:32:00,
2013-04-03 06:37:00,16.0,-7.4,29.21,SSE,164,0.0,0.0,34,0.00,,,0.00,VWS V13.01,2013-04-03 11:37:00,
2013-04-03 06:42:00,16.5,-6.9,29.21,SSE,164,0.0,0.0,34,0.00,,,0.00,VWS V13.01,2013-04-03 11:42:00,
2013-04-03 06:47:00,17.2,-6.3,29.21,SSE,164,0.0,0.0,34,0.00,,,0.00,VWS V13.01,2013-04-03 11:47:00,
2013-04-03 06:53:00,17.2,-6.3,29.21,SSE,164,0.0,0.0,34,0.00,,,0.00,VWS V13.01,2013-04-03 11:53:00,
2013-04-03 06:57:00,17.6,-5.4,29.21,SSE,164,0.0,0.0,35,0.00,,,0.00,VWS V13.01,2013-04-03 11:57:00,
2013-04-03 07:02:00,17.4,-5.5,29.21,SSE,164,0.0,0.0,35,0.00,,,0.00,VWS V13.01,2013-04-03 12:02:00,
2013-04-03 07:07:00,17.8,-5.2,29.21,SSE,164,0.0,0.0,35,0.00,,,0.00,VWS V13.01,2013-04-03 12:07:00,
2013-04-03 07:13:00,18.3,-5.3,29.21,SSE,164,0.0,0.0,34,0.00,,,0.00,VWS V13.01,2013-04-03 12:13:00,
2013-04-03 07:18:00,19.8,-4.1,29.21,SE,136,0.0,2.7,34,0.00,,,0.00,VWS V13.01,2013-04-03 12:18:00,
2013-04-03 07:23:00,19.6,-4.2,29.21,SE,140,2.2,2.2,34,0.00,,,0.00,VWS V13.01,2013-04-03 12:23:00,
2013-04-03 07:28:00,20.5,-3.4,29.21,SE,131,0.0,0.0,34,0.00,,,0.00,VWS V13.01,2013-04-03 12:28:00,
2013-04-03 07:33:00,20.8,-3.1,29.21,East,101,0.0,0.0,34,0.00,,,0.00,VWS V13.01,2013-04-03 12:33:00,
2013-04-03 07:38:00,21.4,-3.2,29.21,ESE,111,0.0,0.0,33,0.00,,,0.00,VWS V13.01,2013-04-03 12:38:00,
2013-04-03 07:43:00,21.6,-3.7,29.21,ESE,115,3.1,3.6,32,0.00,,,0.00,VWS V13.01,2013-04-03 12:43:00,
2013-04-03 07:48:00,23.0,-7.6,29.21,ESE,106,2.7,3.1,25,0.00,,,0.00,VWS V13.01,2013-04-03 12:48:00,
2013-04-03 07:53:00,23.9,-12.4,29.21,ESE,114,3.6,3.6,19,0.00,,,0.00,VWS V13.01,2013-04-03 12:53:00,
2013-04-03 07:58:00,27.0,-13.2,29.21,SE,129,4.0,4.0,16,0.00,,,0.00,VWS V13.01,2013-04-03 12:58:00,
2013-04-03 08:03:00,28.4,-12.1,29.21,ESE,112,2.7,2.7,16,0.00,,,0.00,VWS V13.01,2013-04-03 13:03:00,
2013-04-03 08:08:00,31.1,-11.1,29.21,SSE,148,3.1,3.1,15,0.00,,,0.00,VWS V13.01,2013-04-03 13:08:00,
2013-04-03 08:13:00,30.7,-11.4,29.21,SSE,148,3.1,4.0,15,0.00,,,0.00,VWS V13.01,2013-04-03 13:13:00,
2013-04-03 08:18:00,31.5,-10.9,29.21,SSE,147,3.6,4.0,15,0.00,,,0.00,VWS V13.01,2013-04-03 13:18:00,
2013-04-03 08:23:00,32.7,-9.8,29.21,SSE,154,4.0,4.0,15,0.00,,,0.00,VWS V13.01,2013-04-03 13:23:00,
2013-04-03 08:28:00,34.0,-8.8,29.21,SE,128,4.0,4.9,15,0.00,,,0.00,VWS V13.01,2013-04-03 13:28:00,
2013-04-03 08:33:00,33.8,-8.9,29.21,SE,140,5.8,8.1,15,0.00,,,0.00,VWS V13.01,2013-04-03 13:33:00,
2013-04-03 08:38:00,33.6,-9.1,29.21,ESE,121,5.4,5.8,15,0.00,,,0.00,VWS V13.01,2013-04-03 13:38:00,
2013-04-03 08:43:00,35.4,-7.6,29.21,SE,140,6.3,7.2,15,0.00,,,0.00,VWS V13.01,2013-04-03 13:43:00,
2013-04-03 08:48:00,34.2,-8.6,29.21,SSE,159,6.3,7.6,15,0.00,,,0.00,VWS V13.01,2013-04-03 13:48:00,
2013-04-03 08:53:00,34.7,-8.2,29.21,SE,145,5.8,8.3,15,0.00,,,0.00,VWS V13.01,2013-04-03 13:53:00,
2013-04-03 08:58:00,35.8,-8.7,29.21,SE,146,8.7,10.1,14,0.00,,,0.00,VWS V13.01,2013-04-03 13:58:00,
2013-04-03 09:03:00,34.2,-8.6,29.21,SE,139,10.5,11.9,15,0.00,,,0.00,VWS V13.01,2013-04-03 14:03:00,
2013-04-03 09:08:00,35.1,-7.9,29.21,SE,129,6.3,6.3,15,0.00,,,0.00,VWS V13.01,2013-04-03 14:08:00,
2013-04-03 09:13:00,34.5,-8.4,29.21,ESE,123,7.6,11.0,15,0.00,,,0.00,VWS V13.01,2013-04-03 14:13:00,
2013-04-03 09:18:00,33.1,-9.5,29.21,SE,124,11.4,11.4,15,0.00,,,0.00,VWS V13.01,2013-04-03 14:18:00,
2013-04-03 09:23:00,34.3,-8.5,29.21,SSE,162,7.6,8.7,15,0.00,,,0.00,VWS V13.01,2013-04-03 14:23:00,
2013-04-03 09:28:00,35.1,-7.9,29.21,SE,144,14.1,14.1,15,0.00,,,0.00,VWS V13.01,2013-04-03 14:28:00,
2013-04-03 09:33:00,35.1,-7.9,29.21,SE,145,7.6,10.1,15,0.00,,,0.00,VWS V13.01,2013-04-03 14:33:00,
2013-04-03 09:38:00,35.8,-8.7,29.21,SE,145,7.6,9.6,14,0.00,,,0.00,VWS V13.01,2013-04-03 14:38:00,
2013-04-03 09:43:00,36.7,-8.0,29.21,SSE,154,12.8,13.2,14,0.00,,,0.00,VWS V13.01,2013-04-03 14:43:00,
2013-04-03 09:48:00,36.7,-8.0,29.21,SE,143,10.1,10.1,14,0.00,,,0.00,VWS V13.01,2013-04-03 14:48:00,
2013-04-03 09:53:00,35.6,-8.9,29.21,South,180,8.1,12.8,14,0.00,,,0.00,VWS V13.01,2013-04-03 14:53:00,
2013-04-03 09:58:00,37.8,-7.2,29.21,SSE,162,8.1,8.1,14,0.00,,,0.00,VWS V13.01,2013-04-03 14:58:00,
2013-04-03 10:03:00,37.0,-7.7,29.21,SE,142,15.0,15.0,14,0.00,,,0.00,VWS V13.01,2013-04-03 15:03:00,
2013-04-03 10:08:00,35.6,-8.9,29.21,South,170,12.3,12.3,14,0.00,,,0.00,VWS V13.01,2013-04-03 15:08:00,
2013-04-03 10:13:00,37.4,-7.4,29.18,ESE,120,12.8,12.8,14,0.00,,,0.00,VWS V13.01,2013-04-03 15:13:00,
2013-04-03 10:18:00,38.1,-6.9,29.18,SSE,168,8.7,8.7,14,0.00,,,0.00,VWS V13.01,2013-04-03 15:18:00,
2013-04-03 10:24:00,36.3,-8.3,29.18,South,173,11.0,11.0,14,0.00,,,0.00,VWS V13.01,2013-04-03 15:24:00,
2013-04-03 10:29:00,37.0,-7.7,29.18,SSE,156,8.7,12.8,14,0.00,,,0.00,VWS V13.01,2013-04-03 15:29:00,
2013-04-03 10:34:00,39.6,-7.2,29.18,SE,144,7.6,7.6,13,0.00,,,0.00,VWS V13.01,2013-04-03 15:34:00,
2013-04-03 10:39:00,37.9,-7.0,29.18,ESE,119,10.5,10.5,14,0.00,,,0.00,VWS V13.01,2013-04-03 15:39:00,
2013-04-03 10:44:00,38.1,-6.9,29.18,ESE,113,10.5,10.5,14,0.00,,,0.00,VWS V13.01,2013-04-03 15:44:00,
2013-04-03 10:49:00,38.8,-6.3,29.18,SE,124,7.6,7.6,14,0.00,,,0.00,VWS V13.01,2013-04-03 15:49:00,
2013-04-03 10:54:00,40.5,-6.5,29.18,SE,144,8.7,11.0,13,0.00,,,0.00,VWS V13.01,2013-04-03 15:54:00,
2013-04-03 10:59:00,40.3,-6.7,29.18,SE,130,6.3,10.1,13,0.00,,,0.00,VWS V13.01,2013-04-03 15:59:00,
2013-04-03 11:04:00,38.7,-6.4,29.18,SE,138,10.1,10.1,14,0.00,,,0.00,VWS V13.01,2013-04-03 16:04:00,
2013-04-03 11:09:00,39.4,-7.4,29.18,SSE,153,8.7,8.7,13,0.00,,,0.00,VWS V13.01,2013-04-03 16:09:00,
2013-04-03 11:14:00,41.0,-6.1,29.18,SE,125,8.3,8.3,13,0.00,,,0.00,VWS V13.01,2013-04-03 16:14:00,
2013-04-03 11:19:00,40.3,-6.7,29.18,SSE,147,10.5,10.5,13,0.00,,,0.00,VWS V13.01,2013-04-03 16:19:00,
2013-04-03 11:24:00,39.4,-7.4,29.18,SSE,159,11.4,12.3,13,0.00,,,0.00,VWS V13.01,2013-04-03 16:24:00,
2013-04-03 11:29:00,41.2,-5.9,29.18,SSE,158,9.2,10.1,13,0.00,,,0.00,VWS V13.01,2013-04-03 16:29:00,
2013-04-03 11:34:00,41.9,-5.3,29.18,SE,137,8.3,11.4,13,0.00,,,0.00,VWS V13.01,2013-04-03 16:34:00,
2013-04-03 11:40:00,41.5,-5.6,29.18,SSE,147,12.8,12.8,13,0.00,,,0.00,VWS V13.01,2013-04-03 16:40:00,
2013-04-03 11:45:00,41.0,-6.1,29.15,SSE,160,10.5,12.8,13,0.00,,,0.00,VWS V13.01,2013-04-03 16:45:00,
2013-04-03 11:50:00,41.2,-5.9,29.15,SSE,149,8.7,8.7,13,0.00,,,0.00,VWS V13.01,2013-04-03 16:50:00,
2013-04-03 11:55:00,42.1,-5.2,29.15,SE,131,8.7,10.5,13,0.00,,,0.00,VWS V13.01,2013-04-03 16:55:00,
2013-04-03 12:00:00,41.4,-5.8,29.15,SSE,149,10.1,13.2,13,0.00,,,0.00,VWS V13.01,2013-04-03 17:00:00,
2013-04-03 12:05:00,40.8,-6.2,29.15,SSE,162,10.5,15.4,13,0.00,,,0.00,VWS V13.01,2013-04-03 17:05:00,
2013-04-03 12:10:00,40.8,-6.2,29.15,SSE,161,13.2,13.2,13,0.00,,,0.00,VWS V13.01,2013-04-03 17:10:00,
2013-04-03 12:15:00,40.5,-6.5,29.15,SSE,155,14.5,14.5,13,0.00,,,0.00,VWS V13.01,2013-04-03 17:15:00,
2013-04-03 12:20:00,41.4,-5.8,29.15,SE,129,7.6,7.6,13,0.00,,,0.00,VWS V13.01,2013-04-03 17:20:00,
2013-04-03 12:25:00,42.3,-5.1,29.15,SSE,154,11.9,11.9,13,0.00,,,0.00,VWS V13.01,2013-04-03 17:25:00,
2013-04-03 12:30:00,41.0,-6.1,29.15,ESE,119,11.0,11.0,13,0.00,,,0.00,VWS V13.01,2013-04-03 17:30:00,
2013-04-03 12:35:00,40.8,-6.2,29.15,SE,124,8.3,12.8,13,0.00,,,0.00,VWS V13.01,2013-04-03 17:35:00,
2013-04-03 12:40:00,41.5,-5.6,29.12,ESE,115,12.3,12.3,13,0.00,,,0.00,VWS V13.01,2013-04-03 17:40:00,
2013-04-03 12:45:00,42.8,-4.6,29.12,SSE,161,12.3,12.3,13,0.00,,,0.00,VWS V13.01,2013-04-03 17:45:00,
2013-04-03 12:50:00,41.5,-5.6,29.12,ESE,122,7.6,8.3,13,0.00,,,0.00,VWS V13.01,2013-04-03 17:50:00,
2013-04-03 12:55:00,42.3,-5.1,29.12,East,95,8.7,8.7,13,0.00,,,0.00,VWS V13.01,2013-04-03 17:55:00,
2013-04-03 13:00:00,41.5,-5.6,29.12,SE,138,8.7,9.6,13,0.00,,,0.00,VWS V13.01,2013-04-03 18:00:00,
2013-04-03 13:05:00,42.3,-5.1,29.12,SSE,152,13.2,13.2,13,0.00,,,0.00,VWS V13.01,2013-04-03 18:05:00,
2013-04-03 13:10:00,40.8,-6.2,29.12,East,101,12.8,12.8,13,0.00,,,0.00,VWS V13.01,2013-04-03 18:10:00,
2013-04-03 13:15:00,42.1,-5.2,29.09,SE,140,11.0,11.0,13,0.00,,,0.00,VWS V13.01,2013-04-03 18:15:00,
2013-04-03 13:20:00,43.7,-3.9,29.09,SE,144,10.5,10.5,13,0.00,,,0.00,VWS V13.01,2013-04-03 18:20:00,
2013-04-03 13:25:00,43.5,-4.1,29.12,SSE,162,12.3,12.8,13,0.00,,,0.00,VWS V13.01,2013-04-03 18:25:00,
2013-04-03 13:30:00,41.9,-5.3,29.12,SSE,152,10.1,11.4,13,0.00,,,0.00,VWS V13.01,2013-04-03 18:30:00,
2013-04-03 13:35:00,42.6,-4.8,29.12,SSE,149,11.9,11.9,13,0.00,,,0.00,VWS V13.01,2013-04-03 18:35:00,
2013-04-03 13:40:00,42.8,-4.6,29.09,SSE,149,13.2,13.2,13,0.00,,,0.00,VWS V13.01,2013-04-03 18:40:00,
2013-04-03 13:45:00,43.7,-3.9,29.09,SSE,152,8.7,12.8,13,0.00,,,0.00,VWS V13.01,2013-04-03 18:45:00,
2013-04-03 13:50:00,44.4,-3.3,29.09,SSE,153,12.8,16.3,13,0.00,,,0.00,VWS V13.01,2013-04-03 18:50:00,
2013-04-03 13:55:00,43.0,-4.5,29.09,SE,135,10.1,15.0,13,0.00,,,0.00,VWS V13.01,2013-04-03 18:55:00,
2013-04-03 14:00:00,45.1,-4.4,29.09,SSE,148,8.7,11.0,12,0.00,,,0.00,VWS V13.01,2013-04-03 19:00:00,
2013-04-03 14:05:00,44.8,-4.7,29.09,SE,131,15.0,16.8,12,0.00,,,0.00,VWS V13.01,2013-04-03 19:05:00,
2013-04-03 14:10:00,43.2,-4.3,29.09,SE,146,10.5,13.2,13,0.00,,,0.00,VWS V13.01,2013-04-03 19:10:00,
2013-04-03 14:15:00,44.4,-3.3,29.09,SSW,195,10.1,10.1,13,0.00,,,0.00,VWS V13.01,2013-04-03 19:15:00,
2013-04-03 14:20:00,44.8,-4.7,29.09,SSE,150,17.0,18.3,12,0.00,,,0.00,VWS V13.01,2013-04-03 19:20:00,
2013-04-03 14:25:00,44.1,-3.6,29.09,SE,146,13.6,14.5,13,0.00,,,0.00,VWS V13.01,2013-04-03 19:25:00,
2013-04-03 14:30:00,44.1,-3.6,29.09,SE,136,12.3,12.8,13,0.00,,,0.00,VWS V13.01,2013-04-03 19:30:00,
2013-04-03 14:35:00,44.1,-3.6,29.09,SSE,151,7.6,8.1,13,0.00,,,0.00,VWS V13.01,2013-04-03 19:35:00,
2013-04-03 14:40:00,43.0,-4.5,29.09,SSE,163,12.8,12.8,13,0.00,,,0.00,VWS V13.01,2013-04-03 19:40:00,
2013-04-03 14:45:00,44.2,-3.5,29.09,SE,140,13.2,17.9,13,0.00,,,0.00,VWS V13.01,2013-04-03 19:45:00,
2013-04-03 14:50:00,43.2,-4.3,29.09,ESE,123,16.3,20.1,13,0.00,,,0.00,VWS V13.01,2013-04-03 19:50:00,
2013-04-03 14:55:00,43.9,-3.8,29.06,ESE,119,12.8,12.8,13,0.00,,,0.00,VWS V13.01,2013-04-03 19:55:00,
2013-04-03 15:00:00,43.5,-4.1,29.06,SSE,158,13.2,19.7,13,0.00,,,0.00,VWS V13.01,2013-04-03 20:00:00,
2013-04-03 15:05:00,45.3,-4.3,29.06,SE,145,17.4,17.4,12,0.00,,,0.00,VWS V13.01,2013-04-03 20:05:00,
2013-04-03 15:10:00,43.7,-3.9,29.06,SE,138,14.1,15.0,13,0.00,,,0.00,VWS V13.01,2013-04-03 20:10:00,
2013-04-03 15:15:00,43.2,-4.3,29.06,ESE,119,15.4,17.4,13,0.00,,,0.00,VWS V13.01,2013-04-03 20:15:00,
2013-04-03 15:20:00,43.5,-4.1,29.06,SE,136,13.2,19.7,13,0.00,,,0.00,VWS V13.01,2013-04-03 20:20:00,
2013-04-03 15:25:00,45.3,-4.3,29.06,SSE,154,17.4,18.3,12,0.00,,,0.00,VWS V13.01,2013-04-03 20:25:00,
2013-04-03 15:30:00,44.1,-3.6,29.06,South,170,12.8,19.7,13,0.00,,,0.00,VWS V13.01,2013-04-03 20:30:00,
2013-04-03 15:35:00,43.3,-4.2,29.06,SE,129,15.4,15.4,13,0.00,,,0.00,VWS V13.01,2013-04-03 20:35:00,
2013-04-03 15:40:00,43.5,-4.1,29.06,SSE,154,12.3,15.0,13,0.00,,,0.00,VWS V13.01,2013-04-03 20:40:00,
2013-04-03 15:45:00,45.0,-4.6,29.06,SE,141,17.9,18.8,12,0.00,,,0.00,VWS V13.01,2013-04-03 20:45:00,
2013-04-03 15:50:00,44.8,-4.7,29.06,SSE,156,14.1,19.7,12,0.00,,,0.00,VWS V13.01,2013-04-03 20:50:00,
2013-04-03 15:55:00,47.1,-2.9,29.06,SE,144,17.0,17.0,12,0.00,,,0.00,VWS V13.01,2013-04-03 20:55:00,
2013-04-03 16:00:00,46.9,-3.0,29.06,SSE,168,9.6,9.6,12,0.00,,,0.00,VWS V13.01,2013-04-03 21:00:00,
2013-04-03 16:05:00,44.2,-3.5,29.06,SSE,150,19.2,21.0,13,0.00,,,0.00,VWS V13.01,2013-04-03 21:05:00,
2013-04-03 16:10:00,43.9,-3.8,29.03,SE,143,22.8,22.8,13,0.00,,,0.00,VWS V13.01,2013-04-03 21:10:00,
2013-04-03 16:15:00,45.5,-4.2,29.03,SE,144,16.3,19.7,12,0.00,,,0.00,VWS V13.01,2013-04-03 21:15:00,
2013-04-03 16:20:00,43.7,-3.9,29.03,SE,142,19.2,19.2,13,0.00,,,0.00,VWS V13.01,2013-04-03 21:20:00,
2013-04-03 16:25:00,44.4,-3.3,29.03,SE,134,15.0,15.0,13,0.00,,,0.00,VWS V13.01,2013-04-03 21:25:00,
2013-04-03 16:30:00,46.2,-3.6,29.03,SSE,161,17.4,17.4,12,0.00,,,0.00,VWS V13.01,2013-04-03 21:30:00,
2013-04-03 16:35:00,45.3,-4.3,29.03,SE,136,19.7,19.7,12,0.00,,,0.00,VWS V13.01,2013-04-03 21:35:00,
2013-04-03 16:40:00,46.0,-3.7,29.03,SW,222,11.4,11.4,12,0.00,,,0.00,VWS V13.01,2013-04-03 21:40:00,
2013-04-03 16:45:00,45.3,-4.3,29.03,SE,142,15.9,15.9,12,0.00,,,0.00,VWS V13.01,2013-04-03 21:45:00,
2013-04-03 16:50:00,46.2,-3.6,29.03,SSE,160,15.9,20.1,12,0.00,,,0.00,VWS V13.01,2013-04-03 21:50:00,
2013-04-03 16:55:00,46.9,-3.0,29.03,SSE,154,15.4,17.4,12,0.00,,,0.00,VWS V13.01,2013-04-03 21:55:00,
2013-04-03 17:00:00,45.7,-4.0,29.03,SSE,148,17.4,17.4,12,0.00,,,0.00,VWS V13.01,2013-04-03 22:00:00,
2013-04-03 17:05:00,46.8,-3.2,29.03,SE,130,11.9,13.2,12,0.00,,,0.00,VWS V13.01,2013-04-03 22:05:00,
2013-04-03 17:10:00,47.1,-2.9,29.03,SSE,150,15.0,15.0,12,0.00,,,0.00,VWS V13.01,2013-04-03 22:10:00,
2013-04-03 17:15:00,46.9,-3.0,29.03,SE,134,14.5,14.5,12,0.00,,,0.00,VWS V13.01,2013-04-03 22:15:00,
2013-04-03 17:20:00,47.7,-2.5,29.03,SE,145,13.2,16.3,12,0.00,,,0.00,VWS V13.01,2013-04-03 22:20:00,
2013-04-03 17:25:00,46.4,-3.4,29.00,SE,127,12.8,15.0,12,0.00,,,0.00,VWS V13.01,2013-04-03 22:25:00,
2013-04-03 17:30:00,47.7,-2.5,29.00,SSE,153,15.0,15.0,12,0.00,,,0.00,VWS V13.01,2013-04-03 22:30:00,
2013-04-03 17:35:00,46.9,-3.0,29.00,SSE,149,15.4,15.4,12,0.00,,,0.00,VWS V13.01,2013-04-03 22:35:00,
2013-04-03 17:40:00,46.9,-3.0,29.00,SE,146,11.0,13.2,12,0.00,,,0.00,VWS V13.01,2013-04-03 22:40:00,
2013-04-03 17:45:00,48.2,-3.8,29.00,SSE,152,8.3,9.6,11,0.00,,,0.00,VWS V13.01,2013-04-03 22:45:00,
2013-04-03 17:50:00,47.5,-2.6,29.00,SE,141,8.7,13.2,12,0.00,,,0.00,VWS V13.01,2013-04-03 22:50:00,
2013-04-03 17:55:00,47.8,-2.3,29.00,SE,139,12.8,15.9,12,0.00,,,0.00,VWS V13.01,2013-04-03 22:55:00,
2013-04-03 18:00:00,47.3,-2.7,29.00,South,176,11.0,12.3,12,0.00,,,0.00,VWS V13.01,2013-04-03 23:00:00,
2013-04-03 18:05:00,48.0,-2.2,29.00,SE,143,10.1,18.3,12,0.00,,,0.00,VWS V13.01,2013-04-03 23:05:00,
2013-04-03 18:10:00,47.7,-2.5,29.00,SSE,153,12.8,21.0,12,0.00,,,0.00,VWS V13.01,2013-04-03 23:10:00,
2013-04-03 18:15:00,47.1,-2.9,29.00,SE,142,12.8,15.0,12,0.00,,,0.00,VWS V13.01,2013-04-03 23:15:00,
2013-04-03 18:20:00,47.3,-2.7,29.00,SSE,149,15.0,15.4,12,0.00,,,0.00,VWS V13.01,2013-04-03 23:20:00,
2013-04-03 18:26:00,47.7,-2.5,29.00,SSE,148,11.0,11.0,12,0.00,,,0.00,VWS V13.01,2013-04-03 23:26:00,
2013-04-03 18:31:00,46.8,-3.2,29.00,SE,134,10.1,15.0,12,0.00,,,0.00,VWS V13.01,2013-04-03 23:31:00,
2013-04-03 18:37:00,46.0,-3.7,29.00,South,176,11.0,12.3,12,0.00,,,0.00,VWS V13.01,2013-04-03 23:37:00,
2013-04-03 18:42:00,44.8,-4.7,29.00,SE,139,8.7,11.0,12,0.00,,,0.00,VWS V13.01,2013-04-03 23:42:00,
2013-04-03 18:47:00,44.8,-4.7,29.00,SSE,166,13.2,13.2,12,0.00,,,0.00,VWS V13.01,2013-04-03 23:47:00,
2013-04-03 18:52:00,44.4,-3.3,29.00,SSE,152,11.4,11.4,13,0.00,,,0.00,VWS V13.01,2013-04-03 23:52:00,
2013-04-03 18:57:00,44.1,-3.6,28.97,SE,141,10.5,10.5,13,0.00,,,0.00,VWS V13.01,2013-04-03 23:57:00,
2013-04-03 19:02:00,43.9,-3.8,28.97,SSE,150,11.0,11.0,13,0.00,,,0.00,VWS V13.01,2013-04-04 00:02:00,
2013-04-03 19:07:00,43.3,-4.2,28.97,SE,131,17.4,17.4,13,0.00,,,0.00,VWS V13.01,2013-04-04 00:07:00,
2013-04-03 19:12:00,43.0,-4.5,28.97,SE,129,13.2,13.2,13,0.00,,,0.00,VWS V13.01,2013-04-04 00:12:00,
2013-04-03 19:17:00,42.6,-4.8,28.97,SSE,152,8.1,8.1,13,0.00,,,0.00,VWS V13.01,2013-04-04 00:17:00,
2013-04-03 19:22:00,42.4,-4.9,28.97,SSE,153,9.6,11.9,13,0.00,,,0.00,VWS V13.01,2013-04-04 00:22:00,
2013-04-03 19:27:00,42.3,-5.1,28.97,SE,136,12.3,12.8,13,0.00,,,0.00,VWS V13.01,2013-04-04 00:27:00,
2013-04-03 19:32:00,42.3,-5.1,28.97,SE,139,10.1,10.1,13,0.00,,,0.00,VWS V13.01,2013-04-04 00:32:00,
2013-04-03 19:37:00,42.1,-5.2,28.97,SSE,154,11.0,11.0,13,0.00,,,0.00,VWS V13.01,2013-04-04 00:37:00,
2013-04-03 19:42:00,41.9,-5.3,28.94,SE,143,12.8,12.8,13,0.00,,,0.00,VWS V13.01,2013-04-04 00:42:00,
2013-04-03 19:47:00,41.7,-5.5,28.94,SSE,149,11.4,12.8,13,0.00,,,0.00,VWS V13.01,2013-04-04 00:47:00,
2013-04-03 19:52:00,41.7,-5.5,28.94,SSE,159,10.5,12.8,13,0.00,,,0.00,VWS V13.01,2013-04-04 00:52:00,
2013-04-03 19:57:00,41.5,-5.6,28.94,SE,140,11.0,14.1,13,0.00,,,0.00,VWS V13.01,2013-04-04 00:57:00,
2013-04-03 20:02:00,41.5,-5.6,28.94,SSE,157,15.4,16.3,13,0.00,,,0.00,VWS V13.01,2013-04-04 01:02:00,
2013-04-03 20:07:00,41.2,-5.9,28.94,SE,139,10.1,13.2,13,0.00,,,0.00,VWS V13.01,2013-04-04 01:07:00,
2013-04-03 20:12:00,41.0,-6.1,28.94,SSE,162,8.7,10.5,13,0.00,,,0.00,VWS V13.01,2013-04-04 01:12:00,
2013-04-03 20:17:00,41.2,-5.9,28.94,SE,146,11.9,13.6,13,0.00,,,0.00,VWS V13.01,2013-04-04 01:17:00,
2013-04-03 20:22:00,40.6,-6.4,28.94,SSE,149,8.7,8.7,13,0.00,,,0.00,VWS V13.01,2013-04-04 01:22:00,
2013-04-03 20:27:00,41.4,-5.8,28.94,SSE,151,11.4,13.2,13,0.00,,,0.00,VWS V13.01,2013-04-04 01:27:00,
2013-04-03 20:32:00,40.8,-6.2,28.94,SSE,161,18.3,18.3,13,0.00,,,0.00,VWS V13.01,2013-04-04 01:32:00,
2013-04-03 20:37:00,41.0,-6.1,28.94,SE,136,11.9,12.8,13,0.00,,,0.00,VWS V13.01,2013-04-04 01:37:00,
2013-04-03 20:42:00,40.6,-6.4,28.94,SE,131,13.2,15.0,13,0.00,,,0.00,VWS V13.01,2013-04-04 01:42:00,
2013-04-03 20:47:00,40.8,-6.2,28.94,SE,138,9.6,13.2,13,0.00,,,0.00,VWS V13.01,2013-04-04 01:47:00,
2013-04-03 20:52:00,40.6,-6.4,28.94,SE,137,8.7,15.0,13,0.00,,,0.00,VWS V13.01,2013-04-04 01:52:00,
2013-04-03 20:57:00,40.5,-6.5,28.94,SE,143,16.3,16.3,13,0.00,,,0.00,VWS V13.01,2013-04-04 01:57:00,
2013-04-03 21:02:00,40.5,-6.5,28.94,ESE,122,9.6,12.8,13,0.00,,,0.00,VWS V13.01,2013-04-04 02:02:00,
2013-04-03 21:07:00,40.3,-6.7,28.94,SSE,148,15.0,15.0,13,0.00,,,0.00,VWS V13.01,2013-04-04 02:07:00,
2013-04-03 21:12:00,40.3,-6.7,28.94,SE,143,12.8,12.8,13,0.00,,,0.00,VWS V13.01,2013-04-04 02:12:00,
2013-04-03 21:17:00,40.3,-6.7,28.94,South,169,13.2,13.2,13,0.00,,,0.00,VWS V13.01,2013-04-04 02:17:00,
2013-04-03 21:22:00,40.5,-6.5,28.94,SSE,160,14.5,14.5,13,0.00,,,0.00,VWS V13.01,2013-04-04 02:22:00,
2013-04-03 21:27:00,40.3,-6.7,28.91,SE,136,17.9,17.9,13,0.00,,,0.00,VWS V13.01,2013-04-04 02:27:00,
2013-04-03 21:32:00,40.1,-6.8,28.91,SSE,159,10.5,12.8,13,0.00,,,0.00,VWS V13.01,2013-04-04 02:32:00,
2013-04-03 21:37:00,40.3,-6.7,28.91,SSE,147,8.3,13.2,13,0.00,,,0.00,VWS V13.01,2013-04-04 02:37:00,
2013-04-03 21:42:00,39.9,-6.9,28.94,SSE,149,11.0,11.0,13,0.00,,,0.00,VWS V13.01,2013-04-04 02:42:00,
2013-04-03 21:47:00,39.9,-6.9,28.94,SE,145,15.0,15.9,13,0.00,,,0.00,VWS V13.01,2013-04-04 02:47:00,
2013-04-03 21:52:00,40.1,-6.8,28.94,SSE,151,12.8,15.4,13,0.00,,,0.00,VWS V13.01,2013-04-04 02:52:00,
2013-04-03 21:57:00,39.7,-7.1,28.91,SE,143,12.8,12.8,13,0.00,,,0.00,VWS V13.01,2013-04-04 02:57:00,
2013-04-03 22:02:00,39.7,-7.1,28.91,South,171,17.4,17.4,13,0.00,,,0.00,VWS V13.01,2013-04-04 03:02:00,
2013-04-03 22:07:00,39.9,-6.9,28.91,SSE,153,13.2,16.8,13,0.00,,,0.00,VWS V13.01,2013-04-04 03:07:00,
2013-04-03 22:12:00,39.7,-7.1,28.91,SE,145,15.4,15.4,13,0.00,,,0.00,VWS V13.01,2013-04-04 03:12:00,
2013-04-03 22:18:00,39.7,-7.1,28.91,SE,141,10.5,17.4,13,0.00,,,0.00,VWS V13.01,2013-04-04 03:18:00,
2013-04-03 22:23:00,39.4,-7.4,28.91,SSE,155,11.0,11.0,13,0.00,,,0.00,VWS V13.01,2013-04-04 03:23:00,
2013-04-03 22:28:00,39.2,-7.5,28.91,SE,142,8.7,8.7,13,0.00,,,0.00,VWS V13.01,2013-04-04 03:28:00,
2013-04-03 22:33:00,39.4,-7.4,28.91,SSE,165,10.1,10.1,13,0.00,,,0.00,VWS V13.01,2013-04-04 03:33:00,
2013-04-03 22:38:00,39.0,-6.1,28.91,SSW,198,8.7,8.7,14,0.00,,,0.00,VWS V13.01,2013-04-04 03:38:00,
2013-04-03 22:43:00,39.2,-7.5,28.91,SSE,167,10.5,10.5,13,0.00,,,0.00,VWS V13.01,2013-04-04 03:43:00,
2013-04-03 22:48:00,39.9,-6.9,28.91,SSE,167,17.0,17.0,13,0.00,,,0.00,VWS V13.01,2013-04-04 03:48:00,
2013-04-03 22:53:00,39.7,-7.1,28.91,SE,137,11.0,11.0,13,0.00,,,0.00,VWS V13.01,2013-04-04 03:53:00,
2013-04-03 22:58:00,39.7,-7.1,28.91,SSE,166,14.5,14.5,13,0.00,,,0.00,VWS V13.01,2013-04-04 03:58:00,
2013-04-03 23:00:00,39.7,-7.1,28.91,SSE,163,8.1,15.4,13,0.00,,,0.00,VWS V13.01,2013-04-04 04:00:00,
2013-04-03 23:05:00,39.9,-6.9,28.91,South,180,6.3,12.8,13,0.00,,,0.00,VWS V13.01,2013-04-04 04:05:00,
2013-04-03 23:10:00,40.3,-6.7,28.91,SSE,161,13.2,13.2,13,0.00,,,0.00,VWS V13.01,2013-04-04 04:10:00,
2013-04-03 23:15:00,40.6,-6.4,28.88,SSE,155,12.3,17.4,13,0.00,,,0.00,VWS V13.01,2013-04-04 04:15:00,
2013-04-03 23:20:00,40.5,-6.5,28.88,SE,143,10.5,10.5,13,0.00,,,0.00,VWS V13.01,2013-04-04 04:20:00,
2013-04-03 23:25:00,41.2,-5.9,28.88,SSE,149,7.6,17.4,13,0.00,,,0.00,VWS V13.01,2013-04-04 04:25:00,
2013-04-03 23:30:00,41.2,-5.9,28.88,SE,139,8.1,8.1,13,0.00,,,0.00,VWS V13.01,2013-04-04 04:30:00,
2013-04-03 23:35:00,41.5,-5.6,28.88,SSW,196,17.0,17.0,13,0.00,,,0.00,VWS V13.01,2013-04-04 04:35:00,
2013-04-03 23:40:00,41.4,-5.8,28.88,SSE,165,10.1,10.1,13,0.00,,,0.00,VWS V13.01,2013-04-04 04:40:00,
2013-04-03 23:45:00,41.7,-5.5,28.88,South,185,12.8,12.8,13,0.00,,,0.00,VWS V13.01,2013-04-04 04:45:00,
2013-04-03 23:50:00,41.7,-5.5,28.88,South,183,11.0,11.0,13,0.00,,,0.00,VWS V13.01,2013-04-04 04:50:00,
2013-04-03 23:55:00,41.9,-5.3,28.88,SE,132,12.3,12.3,13,0.00,,,0.00,VWS V13.01,2013-04-04 04:55:00,